sensor_id;sensor_type;location;lat;lon;timestamp;pressure;altitude;pressure_sealevel;temperature;humidity
78411;BME280;67706;51.074;-1.796;2023-11-19T00:01:32;100462.03;;;10.94;100.00
78411;BME280;67706;51.074;-1.796;2023-11-19T00:03:59;100458.44;;;10.87;100.00
78411;BME280;67706;51.074;-1.796;2023-11-19T00:06:26;100470.22;;;10.81;100.00
78411;BME280;67706;51.074;-1.796;2023-11-19T00:08:54;100467.91;;;10.78;100.00
78411;BME280;67706;51.074;-1.796;2023-11-19T00:11:21;100481.88;;;10.83;100.00
78411;BME280;67706;51.074;-1.796;2023-11-19T00:13:47;100483.13;;;10.80;100.00
78411;BME280;67706;51.074;-1.796;2023-11-19T00:16:14;100473.19;;;10.79;100.00
78411;BME280;67706;51.074;-1.796;2023-11-19T00:18:41;100463.69;;;10.75;100.00
78411;BME280;67706;51.074;-1.796;2023-11-19T00:21:08;100478.47;;;10.87;100.00
78411;BME280;67706;51.074;-1.796;2023-11-19T00:23:35;100461.81;;;10.82;100.00
78411;BME280;67706;51.074;-1.796;2023-11-19T00:26:04;100475.97;;;10.99;100.00
78411;BME280;67706;51.074;-1.796;2023-11-19T00:28:31;100470.06;;;11.02;100.00
78411;BME280;67706;51.074;-1.796;2023-11-19T00:30:59;100471.72;;;10.90;100.00
78411;BME280;67706;51.074;-1.796;2023-11-19T00:33:25;100480.41;;;10.87;100.00
78411;BME280;67706;51.074;-1.796;2023-11-19T00:35:52;100478.03;;;10.77;100.00
78411;BME280;67706;51.074;-1.796;2023-11-19T00:38:19;100472.13;;;10.74;100.00
78411;BME280;67706;51.074;-1.796;2023-11-19T00:40:45;100468.13;;;10.76;100.00
78411;BME280;67706;51.074;-1.796;2023-11-19T00:43:13;100473.00;;;10.74;100.00
78411;BME280;67706;51.074;-1.796;2023-11-19T00:45:40;100466.03;;;10.78;100.00
78411;BME280;67706;51.074;-1.796;2023-11-19T00:48:08;100459.91;;;10.83;100.00
78411;BME280;67706;51.074;-1.796;2023-11-19T00:50:35;100445.97;;;10.84;100.00
78411;BME280;67706;51.074;-1.796;2023-11-19T00:53:01;100450.19;;;10.80;100.00
78411;BME280;67706;51.074;-1.796;2023-11-19T00:55:29;100446.78;;;10.65;100.00
78411;BME280;67706;51.074;-1.796;2023-11-19T00:57:55;100443.00;;;10.73;100.00
78411;BME280;67706;51.074;-1.796;2023-11-19T01:00:24;100442.16;;;10.85;100.00
78411;BME280;67706;51.074;-1.796;2023-11-19T01:02:53;100440.06;;;10.74;100.00
78411;BME280;67706;51.074;-1.796;2023-11-19T01:05:20;100445.94;;;10.71;100.00
78411;BME280;67706;51.074;-1.796;2023-11-19T01:07:48;100434.97;;;10.71;100.00
78411;BME280;67706;51.074;-1.796;2023-11-19T01:10:15;100433.28;;;10.64;100.00
78411;BME280;67706;51.074;-1.796;2023-11-19T01:12:43;100431.38;;;10.71;100.00
78411;BME280;67706;51.074;-1.796;2023-11-19T01:15:10;100424.00;;;10.65;100.00
78411;BME280;67706;51.074;-1.796;2023-11-19T01:17:39;100403.09;;;10.57;100.00
78411;BME280;67706;51.074;-1.796;2023-11-19T01:20:07;100425.25;;;10.69;100.00
78411;BME280;67706;51.074;-1.796;2023-11-19T01:22:37;100426.97;;;10.70;100.00
78411;BME280;67706;51.074;-1.796;2023-11-19T01:25:05;100429.50;;;10.71;100.00
78411;BME280;67706;51.074;-1.796;2023-11-19T01:27:32;100436.22;;;10.62;100.00
78411;BME280;67706;51.074;-1.796;2023-11-19T01:30:00;100437.69;;;10.58;100.00
78411;BME280;67706;51.074;-1.796;2023-11-19T01:32:27;100436.66;;;10.59;100.00
78411;BME280;67706;51.074;-1.796;2023-11-19T01:34:55;100445.28;;;10.56;100.00
78411;BME280;67706;51.074;-1.796;2023-11-19T01:37:22;100442.13;;;10.59;100.00
78411;BME280;67706;51.074;-1.796;2023-11-19T01:39:48;100439.59;;;10.51;100.00
78411;BME280;67706;51.074;-1.796;2023-11-19T01:42:15;100442.97;;;10.53;100.00
78411;BME280;67706;51.074;-1.796;2023-11-19T01:44:41;100442.13;;;10.53;100.00
78411;BME280;67706;51.074;-1.796;2023-11-19T01:47:08;100431.75;;;10.48;100.00
78411;BME280;67706;51.074;-1.796;2023-11-19T01:49:35;100433.84;;;10.39;100.00
78411;BME280;67706;51.074;-1.796;2023-11-19T01:52:04;100429.84;;;10.35;100.00
78411;BME280;67706;51.074;-1.796;2023-11-19T01:54:31;100427.72;;;10.37;100.00
78411;BME280;67706;51.074;-1.796;2023-11-19T01:56:58;100432.59;;;10.42;100.00
78411;BME280;67706;51.074;-1.796;2023-11-19T01:59:26;100420.16;;;10.46;100.00
78411;BME280;67706;51.074;-1.796;2023-11-19T02:01:53;100426.88;;;10.37;100.00
78411;BME280;67706;51.074;-1.796;2023-11-19T02:04:20;100427.31;;;10.34;100.00
78411;BME280;67706;51.074;-1.796;2023-11-19T02:06:48;100427.06;;;10.29;100.00
78411;BME280;67706;51.074;-1.796;2023-11-19T02:09:18;100423.25;;;10.23;100.00
78411;BME280;67706;51.074;-1.796;2023-11-19T02:11:44;100420.28;;;10.18;100.00
78411;BME280;67706;51.074;-1.796;2023-11-19T02:14:15;100407.47;;;10.32;100.00
78411;BME280;67706;51.074;-1.796;2023-11-19T02:16:43;100405.56;;;10.26;100.00
78411;BME280;67706;51.074;-1.796;2023-11-19T02:19:10;100402.84;;;10.32;100.00
78411;BME280;67706;51.074;-1.796;2023-11-19T02:21:37;100387.41;;;10.25;100.00
78411;BME280;67706;51.074;-1.796;2023-11-19T02:24:06;100374.97;;;10.29;100.00
78411;BME280;67706;51.074;-1.796;2023-11-19T02:26:39;100354.56;;;10.38;100.00
78411;BME280;67706;51.074;-1.796;2023-11-19T02:29:12;100361.09;;;10.50;100.00
78411;BME280;67706;51.074;-1.796;2023-11-19T02:31:39;100364.06;;;10.49;100.00
78411;BME280;67706;51.074;-1.796;2023-11-19T02:34:05;100373.78;;;10.51;100.00
78411;BME280;67706;51.074;-1.796;2023-11-19T02:36:32;100384.94;;;10.56;100.00
78411;BME280;67706;51.074;-1.796;2023-11-19T02:38:59;100384.53;;;10.53;100.00
78411;BME280;67706;51.074;-1.796;2023-11-19T02:41:26;100387.06;;;10.61;100.00
78411;BME280;67706;51.074;-1.796;2023-11-19T02:43:52;100396.38;;;10.60;100.00
78411;BME280;67706;51.074;-1.796;2023-11-19T02:46:20;100383.91;;;10.57;100.00
78411;BME280;67706;51.074;-1.796;2023-11-19T02:48:47;100372.47;;;10.54;100.00
78411;BME280;67706;51.074;-1.796;2023-11-19T02:51:14;100384.31;;;10.54;100.00
78411;BME280;67706;51.074;-1.796;2023-11-19T02:53:40;100387.03;;;10.48;100.00
78411;BME280;67706;51.074;-1.796;2023-11-19T02:56:09;100372.69;;;10.52;100.00
78411;BME280;67706;51.074;-1.796;2023-11-19T02:58:45;100369.97;;;10.52;100.00
78411;BME280;67706;51.074;-1.796;2023-11-19T03:01:11;100370.41;;;10.49;100.00
78411;BME280;67706;51.074;-1.796;2023-11-19T03:03:49;100376.31;;;10.53;100.00
78411;BME280;67706;51.074;-1.796;2023-11-19T03:06:20;100372.91;;;10.51;100.00
78411;BME280;67706;51.074;-1.796;2023-11-19T03:08:47;100374.63;;;10.65;100.00
78411;BME280;67706;51.074;-1.796;2023-11-19T03:11:14;100381.59;;;10.67;100.00
78411;BME280;67706;51.074;-1.796;2023-11-19T03:13:41;100378.22;;;10.65;100.00
78411;BME280;67706;51.074;-1.796;2023-11-19T03:16:08;100380.31;;;10.63;100.00
78411;BME280;67706;51.074;-1.796;2023-11-19T03:18:35;100367.22;;;10.59;100.00
78411;BME280;67706;51.074;-1.796;2023-11-19T03:21:03;100354.56;;;10.51;100.00
78411;BME280;67706;51.074;-1.796;2023-11-19T03:23:30;100353.09;;;10.55;100.00
78411;BME280;67706;51.074;-1.796;2023-11-19T03:25:56;100359.41;;;10.62;100.00
78411;BME280;67706;51.074;-1.796;2023-11-19T03:28:23;100348.88;;;10.59;100.00
78411;BME280;67706;51.074;-1.796;2023-11-19T03:30:50;100359.00;;;10.52;100.00
78411;BME280;67706;51.074;-1.796;2023-11-19T03:33:18;100348.03;;;10.52;100.00
78411;BME280;67706;51.074;-1.796;2023-11-19T03:35:45;100349.50;;;10.48;100.00
78411;BME280;67706;51.074;-1.796;2023-11-19T03:38:13;100351.41;;;10.54;100.00
78411;BME280;67706;51.074;-1.796;2023-11-19T03:40:39;100353.91;;;10.56;100.00
78411;BME280;67706;51.074;-1.796;2023-11-19T03:43:06;100349.72;;;10.53;100.00
78411;BME280;67706;51.074;-1.796;2023-11-19T03:45:34;100338.31;;;10.56;100.00
78411;BME280;67706;51.074;-1.796;2023-11-19T03:48:01;100336.84;;;10.60;100.00
78411;BME280;67706;51.074;-1.796;2023-11-19T03:50:28;100337.47;;;10.62;100.00
78411;BME280;67706;51.074;-1.796;2023-11-19T03:52:55;100347.81;;;10.60;100.00
78411;BME280;67706;51.074;-1.796;2023-11-19T03:55:23;100349.53;;;10.61;100.00
78411;BME280;67706;51.074;-1.796;2023-11-19T03:57:49;100349.53;;;10.68;100.00
78411;BME280;67706;51.074;-1.796;2023-11-19T04:00:16;100344.22;;;10.79;100.00
78411;BME280;67706;51.074;-1.796;2023-11-19T04:02:42;100334.94;;;10.93;100.00
78411;BME280;67706;51.074;-1.796;2023-11-19T04:05:09;100338.97;;;10.97;100.00
78411;BME280;67706;51.074;-1.796;2023-11-19T04:07:36;100333.66;;;10.89;100.00
78411;BME280;67706;51.074;-1.796;2023-11-19T04:10:03;100330.94;;;10.96;100.00
78411;BME280;67706;51.074;-1.796;2023-11-19T04:12:31;100333.66;;;10.89;100.00
78411;BME280;67706;51.074;-1.796;2023-11-19T04:14:58;100337.25;;;10.83;100.00
78411;BME280;67706;51.074;-1.796;2023-11-19T04:17:25;100334.97;;;10.80;100.00
78411;BME280;67706;51.074;-1.796;2023-11-19T04:19:51;100333.69;;;10.83;100.00
78411;BME280;67706;51.074;-1.796;2023-11-19T04:22:18;100339.19;;;10.76;100.00
78411;BME280;67706;51.074;-1.796;2023-11-19T04:24:45;100339.38;;;10.75;100.00
78411;BME280;67706;51.074;-1.796;2023-11-19T04:27:11;100332.00;;;10.62;100.00
78411;BME280;67706;51.074;-1.796;2023-11-19T04:29:39;100336.84;;;10.73;100.00
78411;BME280;67706;51.074;-1.796;2023-11-19T04:32:06;100344.69;;;10.76;100.00
78411;BME280;67706;51.074;-1.796;2023-11-19T04:34:33;100341.50;;;10.86;100.00
78411;BME280;67706;51.074;-1.796;2023-11-19T04:37:00;100345.72;;;11.01;100.00
78411;BME280;67706;51.074;-1.796;2023-11-19T04:39:29;100343.81;;;10.95;100.00
78411;BME280;67706;51.074;-1.796;2023-11-19T04:41:55;100343.78;;;11.08;100.00
78411;BME280;67706;51.074;-1.796;2023-11-19T04:44:22;100340.41;;;11.06;100.00
78411;BME280;67706;51.074;-1.796;2023-11-19T04:46:50;100352.25;;;11.07;100.00
78411;BME280;67706;51.074;-1.796;2023-11-19T04:49:17;100356.47;;;11.16;100.00
78411;BME280;67706;51.074;-1.796;2023-11-19T04:51:45;100353.72;;;11.03;100.00
78411;BME280;67706;51.074;-1.796;2023-11-19T04:54:12;100349.28;;;11.08;100.00
78411;BME280;67706;51.074;-1.796;2023-11-19T04:56:39;100336.81;;;11.12;100.00
78411;BME280;67706;51.074;-1.796;2023-11-19T04:59:06;100339.78;;;11.17;100.00
78411;BME280;67706;51.074;-1.796;2023-11-19T05:01:34;100327.31;;;11.08;100.00
78411;BME280;67706;51.074;-1.796;2023-11-19T05:04:02;100332.38;;;11.18;100.00
78411;BME280;67706;51.074;-1.796;2023-11-19T05:06:29;100327.53;;;11.13;100.00
78411;BME280;67706;51.074;-1.796;2023-11-19T05:08:58;100329.19;;;11.21;100.00
78411;BME280;67706;51.074;-1.796;2023-11-19T05:11:26;100326.06;;;11.11;100.00
78411;BME280;67706;51.074;-1.796;2023-11-19T05:13:53;100317.19;;;11.02;100.00
78411;BME280;67706;51.074;-1.796;2023-11-19T05:16:20;100315.09;;;11.04;100.00
78411;BME280;67706;51.074;-1.796;2023-11-19T05:18:46;100297.75;;;11.17;100.00
78411;BME280;67706;51.074;-1.796;2023-11-19T05:21:15;100303.22;;;11.17;100.00
78411;BME280;67706;51.074;-1.796;2023-11-19T05:23:43;100332.41;;;11.05;100.00
78411;BME280;67706;51.074;-1.796;2023-11-19T05:26:16;100314.66;;;11.07;100.00
78411;BME280;67706;51.074;-1.796;2023-11-19T05:28:43;100304.09;;;11.04;100.00
78411;BME280;67706;51.074;-1.796;2023-11-19T05:31:09;100314.66;;;11.07;100.00
78411;BME280;67706;51.074;-1.796;2023-11-19T05:33:36;100315.09;;;11.04;100.00
78411;BME280;67706;51.074;-1.796;2023-11-19T05:36:04;100303.47;;;11.15;100.00
78411;BME280;67706;51.074;-1.796;2023-11-19T05:38:32;100306.63;;;11.12;100.00
78411;BME280;67706;51.074;-1.796;2023-11-19T05:40:58;100315.53;;;11.08;100.00
78411;BME280;67706;51.074;-1.796;2023-11-19T05:43:25;100304.31;;;11.09;100.00
78411;BME280;67706;51.074;-1.796;2023-11-19T05:45:52;100305.81;;;11.05;100.00
78411;BME280;67706;51.074;-1.796;2023-11-19T05:48:18;100307.25;;;11.14;100.00
78411;BME280;67706;51.074;-1.796;2023-11-19T05:50:45;100312.56;;;11.09;100.00
78411;BME280;67706;51.074;-1.796;2023-11-19T05:53:15;100315.53;;;11.08;100.00
78411;BME280;67706;51.074;-1.796;2023-11-19T05:55:43;100325.66;;;11.07;100.00
78411;BME280;67706;51.074;-1.796;2023-11-19T05:58:14;100329.03;;;11.03;100.00
78411;BME280;67706;51.074;-1.796;2023-11-19T06:00:41;100318.91;;;11.03;100.00
78411;BME280;67706;51.074;-1.796;2023-11-19T06:03:08;100305.81;;;10.99;100.00
78411;BME280;67706;51.074;-1.796;2023-11-19T06:05:35;100312.16;;;10.99;100.00
78411;BME280;67706;51.074;-1.796;2023-11-19T06:08:01;100319.97;;;10.83;100.00
78411;BME280;67706;51.074;-1.796;2023-11-19T06:10:28;100316.78;;;10.86;100.00
78411;BME280;67706;51.074;-1.796;2023-11-19T06:12:59;100313.19;;;10.85;100.00
78411;BME280;67706;51.074;-1.796;2023-11-19T06:15:26;100306.69;;;10.73;100.00
78411;BME280;67706;51.074;-1.796;2023-11-19T06:17:53;100312.16;;;10.60;100.00
78411;BME280;67706;51.074;-1.796;2023-11-19T06:20:20;100314.50;;;10.76;100.00
78411;BME280;67706;51.074;-1.796;2023-11-19T06:22:46;100323.13;;;10.67;100.00
78411;BME280;67706;51.074;-1.796;2023-11-19T06:25:13;100336.22;;;10.71;100.00
78411;BME280;67706;51.074;-1.796;2023-11-19T06:27:41;100346.56;;;10.69;100.00
78411;BME280;67706;51.074;-1.796;2023-11-19T06:30:10;100350.16;;;10.76;100.00
78411;BME280;67706;51.074;-1.796;2023-11-19T06:32:37;100344.66;;;10.89;100.00
78411;BME280;67706;51.074;-1.796;2023-11-19T06:35:04;100331.78;;;10.83;100.00
78411;BME280;67706;51.074;-1.796;2023-11-19T06:37:31;100326.91;;;10.85;100.00
78411;BME280;67706;51.074;-1.796;2023-11-19T06:39:58;100329.03;;;10.83;100.00
78411;BME280;67706;51.074;-1.796;2023-11-19T06:42:24;100341.09;;;10.89;100.00
78411;BME280;67706;51.074;-1.796;2023-11-19T06:44:51;100337.66;;;11.06;100.00
78411;BME280;67706;51.074;-1.796;2023-11-19T06:47:19;100336.63;;;11.07;100.00
78411;BME280;67706;51.074;-1.796;2023-11-19T06:49:46;100342.75;;;11.09;100.00
78411;BME280;67706;51.074;-1.796;2023-11-19T06:52:13;100333.66;;;11.02;100.00
78411;BME280;67706;51.074;-1.796;2023-11-19T06:54:39;100319.31;;;10.87;100.00
78411;BME280;67706;51.074;-1.796;2023-11-19T06:57:06;100324.81;;;10.94;100.00
78411;BME280;67706;51.074;-1.796;2023-11-19T06:59:34;100327.38;;;10.82;100.00
78411;BME280;67706;51.074;-1.796;2023-11-19T07:02:01;100333.25;;;10.86;100.00
78411;BME280;67706;51.074;-1.796;2023-11-19T07:04:29;100329.88;;;10.97;100.00
78411;BME280;67706;51.074;-1.796;2023-11-19T07:06:56;100338.75;;;11.12;100.00
78411;BME280;67706;51.074;-1.796;2023-11-19T07:09:22;100345.50;;;10.96;100.00
78411;BME280;67706;51.074;-1.796;2023-11-19T07:11:49;100346.97;;;10.92;100.00
78411;BME280;67706;51.074;-1.796;2023-11-19T07:14:17;100349.09;;;10.77;100.00
78411;BME280;67706;51.074;-1.796;2023-11-19T07:16:45;100372.09;;;10.89;100.00
78411;BME280;67706;51.074;-1.796;2023-11-19T07:19:12;100361.34;;;10.81;100.00
78411;BME280;67706;51.074;-1.796;2023-11-19T07:21:42;100368.72;;;10.68;100.00
78411;BME280;67706;51.074;-1.796;2023-11-19T07:24:10;100360.28;;;10.69;100.00
78411;BME280;67706;51.074;-1.796;2023-11-19T07:26:41;100357.13;;;10.66;100.00
78411;BME280;67706;51.074;-1.796;2023-11-19T07:29:08;100353.72;;;10.57;100.00
78411;BME280;67706;51.074;-1.796;2023-11-19T07:31:35;100350.13;;;10.57;100.00
78411;BME280;67706;51.074;-1.796;2023-11-19T07:34:02;100359.44;;;10.69;100.00
78411;BME280;67706;51.074;-1.796;2023-11-19T07:36:29;100358.38;;;10.76;100.00
78411;BME280;67706;51.074;-1.796;2023-11-19T07:38:57;100365.34;;;10.85;100.00
78411;BME280;67706;51.074;-1.796;2023-11-19T07:41:24;100369.97;;;10.91;100.00
78411;BME280;67706;51.074;-1.796;2023-11-19T07:43:51;100369.13;;;11.17;100.00
78411;BME280;67706;51.074;-1.796;2023-11-19T07:46:18;100365.53;;;11.16;100.00
78411;BME280;67706;51.074;-1.796;2023-11-19T07:48:45;100360.66;;;11.18;100.00
78411;BME280;67706;51.074;-1.796;2023-11-19T07:51:13;100349.28;;;11.08;100.00
78411;BME280;67706;51.074;-1.796;2023-11-19T07:53:40;100347.16;;;11.10;100.00
78411;BME280;67706;51.074;-1.796;2023-11-19T07:56:09;100340.41;;;11.06;100.00
78411;BME280;67706;51.074;-1.796;2023-11-19T07:58:35;100344.41;;;11.10;100.00
78411;BME280;67706;51.074;-1.796;2023-11-19T08:01:03;100346.75;;;11.27;100.00
78411;BME280;67706;51.074;-1.796;2023-11-19T08:03:29;100347.13;;;11.37;100.00
78411;BME280;67706;51.074;-1.796;2023-11-19T08:05:56;100347.56;;;11.27;100.00
78411;BME280;67706;51.074;-1.796;2023-11-19T08:08:23;100349.91;;;11.24;100.00
78411;BME280;67706;51.074;-1.796;2023-11-19T08:10:49;100352.19;;;11.33;100.00
78411;BME280;67706;51.074;-1.796;2023-11-19T08:13:18;100341.44;;;11.32;100.00
78411;BME280;67706;51.074;-1.796;2023-11-19T08:15:45;100341.19;;;11.40;100.00
78411;BME280;67706;51.074;-1.796;2023-11-19T08:18:12;100348.56;;;11.46;100.00
78411;BME280;67706;51.074;-1.796;2023-11-19T08:20:39;100363.75;;;11.55;100.00
78411;BME280;67706;51.074;-1.796;2023-11-19T08:23:06;100369.47;;;11.60;100.00
78411;BME280;67706;51.074;-1.796;2023-11-19T08:25:33;100366.06;;;11.71;100.00
78411;BME280;67706;51.074;-1.796;2023-11-19T08:28:00;100373.88;;;11.74;100.00
78411;BME280;67706;51.074;-1.796;2023-11-19T08:30:30;100373.25;;;11.72;100.00
78411;BME280;67706;51.074;-1.796;2023-11-19T08:32:56;100377.25;;;11.76;100.00
78411;BME280;67706;51.074;-1.796;2023-11-19T08:35:24;100394.97;;;11.93;100.00
78411;BME280;67706;51.074;-1.796;2023-11-19T08:37:50;100380.97;;;12.01;100.00
78411;BME280;67706;51.074;-1.796;2023-11-19T08:40:17;100379.22;;;12.07;100.00
78411;BME280;67706;51.074;-1.796;2023-11-19T08:42:45;100376.06;;;12.10;100.00
78411;BME280;67706;51.074;-1.796;2023-11-19T08:45:11;100374.94;;;12.17;100.00
78411;BME280;67706;51.074;-1.796;2023-11-19T08:47:39;100378.94;;;12.21;100.00
78411;BME280;67706;51.074;-1.796;2023-11-19T08:50:06;100375.41;;;12.14;100.00
78411;BME280;67706;51.074;-1.796;2023-11-19T08:52:33;100368.44;;;12.12;100.00
78411;BME280;67706;51.074;-1.796;2023-11-19T08:55:00;100363.97;;;12.11;100.00
78411;BME280;67706;51.074;-1.796;2023-11-19T08:57:26;100368.91;;;12.02;100.00
78411;BME280;67706;51.074;-1.796;2023-11-19T08:59:53;100368.09;;;11.95;100.00
78411;BME280;67706;51.074;-1.796;2023-11-19T09:02:20;100368.97;;;11.89;100.00
78411;BME280;67706;51.074;-1.796;2023-11-19T09:04:48;100368.09;;;11.95;100.00
78411;BME280;67706;51.074;-1.796;2023-11-19T09:07:14;100362.19;;;11.91;100.00
78411;BME280;67706;51.074;-1.796;2023-11-19T09:09:41;100346.81;;;11.77;100.00
78411;BME280;67706;51.074;-1.796;2023-11-19T09:12:08;100342.38;;;11.83;100.00
78411;BME280;67706;51.074;-1.796;2023-11-19T09:14:34;100354.84;;;11.79;100.00
78411;BME280;67706;51.074;-1.796;2023-11-19T09:17:01;100361.59;;;11.83;100.00
78411;BME280;67706;51.074;-1.796;2023-11-19T09:19:28;100355.00;;;11.90;100.00
78411;BME280;67706;51.074;-1.796;2023-11-19T09:21:56;100360.84;;;12.07;100.00
78411;BME280;67706;51.074;-1.796;2023-11-19T09:24:22;100357.88;;;12.09;100.00
78411;BME280;67706;51.074;-1.796;2023-11-19T09:26:49;100358.84;;;12.27;100.00
78411;BME280;67706;51.074;-1.796;2023-11-19T09:29:16;100361.28;;;12.42;100.00
78411;BME280;67706;51.074;-1.796;2023-11-19T09:31:42;100354.66;;;12.49;100.00
78411;BME280;67706;51.074;-1.796;2023-11-19T09:34:09;100356.72;;;12.60;100.00
78411;BME280;67706;51.074;-1.796;2023-11-19T09:36:35;100346.09;;;12.64;100.00
78411;BME280;67706;51.074;-1.796;2023-11-19T09:39:03;100344.44;;;12.63;100.00
78411;BME280;67706;51.074;-1.796;2023-11-19T09:41:32;100346.13;;;12.57;100.00
78411;BME280;67706;51.074;-1.796;2023-11-19T09:44:00;100347.03;;;12.51;100.00
78411;BME280;67706;51.074;-1.796;2023-11-19T09:46:26;100352.53;;;12.51;100.00
78411;BME280;67706;51.074;-1.796;2023-11-19T09:48:55;100344.31;;;12.45;100.00
78411;BME280;67706;51.074;-1.796;2023-11-19T09:51:22;100347.31;;;12.43;100.00
78411;BME280;67706;51.074;-1.796;2023-11-19T09:53:49;100342.84;;;12.42;100.00
78411;BME280;67706;51.074;-1.796;2023-11-19T09:56:18;100354.28;;;12.46;100.00
78411;BME280;67706;51.074;-1.796;2023-11-19T09:58:45;100360.97;;;12.56;100.00
78411;BME280;67706;51.074;-1.796;2023-11-19T10:01:12;100357.16;;;12.57;100.00
78411;BME280;67706;51.074;-1.796;2023-11-19T10:03:39;100346.13;;;12.57;100.00
78411;BME280;67706;51.074;-1.796;2023-11-19T10:06:09;100338.50;;;12.59;100.00
78411;BME280;67706;51.074;-1.796;2023-11-19T10:08:37;100350.13;;;12.61;100.00
78411;BME280;67706;51.074;-1.796;2023-11-19T10:11:05;100347.38;;;12.61;100.00
78411;BME280;67706;51.074;-1.796;2023-11-19T10:13:35;100346.31;;;12.62;100.00
78411;BME280;67706;51.074;-1.796;2023-11-19T10:16:06;100353.53;;;12.57;100.00
78411;BME280;67706;51.074;-1.796;2023-11-19T10:18:33;100351.66;;;12.57;100.00
78411;BME280;67706;51.074;-1.796;2023-11-19T10:21:04;100349.94;;;12.63;100.00
78411;BME280;67706;51.074;-1.796;2023-11-19T10:23:31;100355.97;;;12.71;100.00
78411;BME280;67706;51.074;-1.796;2023-11-19T10:26:02;100346.00;;;12.77;100.00
78411;BME280;67706;51.074;-1.796;2023-11-19T10:28:39;100357.78;;;12.84;100.00
78411;BME280;67706;51.074;-1.796;2023-11-19T10:31:07;100353.75;;;12.87;100.00
78411;BME280;67706;51.074;-1.796;2023-11-19T10:33:34;100361.84;;;12.82;100.00
78411;BME280;67706;51.074;-1.796;2023-11-19T10:36:01;100351.66;;;12.82;100.00
78411;BME280;67706;51.074;-1.796;2023-11-19T10:38:28;100354.34;;;12.89;100.00
78411;BME280;67706;51.074;-1.796;2023-11-19T10:40:56;100344.25;;;12.83;100.00
78411;BME280;67706;51.074;-1.796;2023-11-19T10:43:23;100353.31;;;12.90;100.00
78411;BME280;67706;51.074;-1.796;2023-11-19T10:45:51;100367.06;;;12.90;100.00
78411;BME280;67706;51.074;-1.796;2023-11-19T10:48:18;100352.47;;;12.89;100.00
78411;BME280;67706;51.074;-1.796;2023-11-19T10:50:49;100353.94;;;12.92;100.00
78411;BME280;67706;51.074;-1.796;2023-11-19T10:53:18;100361.94;;;12.93;100.00
78411;BME280;67706;51.074;-1.796;2023-11-19T10:55:47;100359.19;;;12.93;100.00
78411;BME280;67706;51.074;-1.796;2023-11-19T10:58:15;100367.47;;;12.93;100.00
78411;BME280;67706;51.074;-1.796;2023-11-19T11:00:44;100356.97;;;12.84;100.00
78411;BME280;67706;51.074;-1.796;2023-11-19T11:03:16;100352.06;;;12.86;100.00
78411;BME280;67706;51.074;-1.796;2023-11-19T11:05:46;100362.91;;;12.81;100.00
78411;BME280;67706;51.074;-1.796;2023-11-19T11:08:14;100371.78;;;12.83;100.00
78411;BME280;67706;51.074;-1.796;2023-11-19T11:10:44;100364.31;;;12.90;100.00
78411;BME280;67706;51.074;-1.796;2023-11-19T11:13:13;100363.81;;;12.99;100.00
78411;BME280;67706;51.074;-1.796;2023-11-19T11:15:40;100362.94;;;12.99;100.00
78411;BME280;67706;51.074;-1.796;2023-11-19T11:18:08;100356.16;;;13.01;100.00
78411;BME280;67706;51.074;-1.796;2023-11-19T11:20:37;100351.25;;;13.03;100.00
78411;BME280;67706;51.074;-1.796;2023-11-19T11:23:35;100341.97;;;13.04;100.00
78411;BME280;67706;51.074;-1.796;2023-11-19T11:26:27;100337.03;;;13.13;100.00
78411;BME280;67706;51.074;-1.796;2023-11-19T11:29:02;100335.09;;;13.13;100.00
78411;BME280;67706;51.074;-1.796;2023-11-19T11:31:39;100331.59;;;13.24;100.00
78411;BME280;67706;51.074;-1.796;2023-11-19T11:34:30;100331.16;;;13.27;100.00
78411;BME280;67706;51.074;-1.796;2023-11-19T11:37:11;100332.31;;;13.38;100.00
78411;BME280;67706;51.074;-1.796;2023-11-19T11:39:43;100324.00;;;13.44;100.00
78411;BME280;67706;51.074;-1.796;2023-11-19T11:42:31;100318.47;;;13.44;100.00
78411;BME280;67706;51.074;-1.796;2023-11-19T11:44:59;100323.88;;;13.33;100.00
78411;BME280;67706;51.074;-1.796;2023-11-19T11:48:09;100314.09;;;13.37;100.00
78411;BME280;67706;51.074;-1.796;2023-11-19T11:50:48;100311.09;;;13.38;100.00
78411;BME280;67706;51.074;-1.796;2023-11-19T11:53:21;100317.94;;;13.36;100.00
78411;BME280;67706;51.074;-1.796;2023-11-19T11:55:54;100312.56;;;13.41;100.00
78411;BME280;67706;51.074;-1.796;2023-11-19T11:58:25;100303.69;;;13.39;100.00
78411;BME280;67706;51.074;-1.796;2023-11-19T12:00:52;100308.16;;;13.40;100.00
78411;BME280;67706;51.074;-1.796;2023-11-19T12:03:20;100322.59;;;13.35;100.00
78411;BME280;67706;51.074;-1.796;2023-11-19T12:05:48;100308.44;;;13.32;100.00
78411;BME280;67706;51.074;-1.796;2023-11-19T12:08:19;100317.09;;;13.35;100.00
78411;BME280;67706;51.074;-1.796;2023-11-19T12:10:49;100304.47;;;13.28;100.00
78411;BME280;67706;51.074;-1.796;2023-11-19T12:13:17;100315.63;;;13.33;100.00
78411;BME280;67706;51.074;-1.796;2023-11-19T12:16:09;100309.88;;;13.34;100.00
78411;BME280;67706;51.074;-1.796;2023-11-19T12:18:39;100310.72;;;13.35;100.00
78411;BME280;67706;51.074;-1.796;2023-11-19T12:21:06;100303.69;;;13.39;100.00
78411;BME280;67706;51.074;-1.796;2023-11-19T12:23:35;100303.84;;;13.44;100.00
78411;BME280;67706;51.074;-1.796;2023-11-19T12:26:03;100309.88;;;13.34;100.00
78411;BME280;67706;51.074;-1.796;2023-11-19T12:28:30;100292.91;;;13.37;100.00
78411;BME280;67706;51.074;-1.796;2023-11-19T12:31:07;100305.59;;;13.38;100.00
78411;BME280;67706;51.074;-1.796;2023-11-19T12:33:35;100298.28;;;13.50;100.00
78411;BME280;67706;51.074;-1.796;2023-11-19T12:36:03;100296.56;;;13.49;100.00